createdAt,value
2019-06-08T00:02:04.488Z,99.90
2019-06-08T00:04:23.522Z,99.90
2019-06-08T00:06:42.599Z,99.90
2019-06-08T00:09:01.583Z,99.90
2019-06-08T00:11:23.406Z,99.90
2019-06-08T00:13:42.603Z,99.90
2019-06-08T00:16:02.346Z,99.90
2019-06-08T00:18:23.616Z,99.90
2019-06-08T00:20:43.534Z,99.90
2019-06-08T00:23:02.596Z,99.90
2019-06-08T00:25:22.543Z,99.90
2019-06-08T00:27:41.709Z,99.90
2019-06-08T00:30:00.678Z,99.90
2019-06-08T00:32:20.348Z,99.90
2019-06-08T00:34:39.472Z,99.90
2019-06-08T00:36:58.556Z,99.90
2019-06-08T00:39:18.831Z,99.90
2019-06-08T00:41:38.188Z,99.90
2019-06-08T00:43:57.267Z,99.90
2019-06-08T00:46:17.222Z,99.90
2019-06-08T00:48:36.311Z,99.90
2019-06-08T00:50:55.286Z,99.90
2019-06-08T00:53:14.495Z,99.90
2019-06-08T00:55:33.578Z,99.90
2019-06-08T00:57:52.521Z,99.90
2019-06-08T01:00:11.828Z,99.90
2019-06-08T01:02:31.024Z,99.90
2019-06-08T01:04:50.176Z,99.90
2019-06-08T01:07:09.280Z,99.90
2019-06-08T01:09:28.234Z,99.90
2019-06-08T01:11:47.161Z,99.90
2019-06-08T01:14:06.337Z,99.90
2019-06-08T01:16:25.328Z,99.90
2019-06-08T01:18:44.254Z,99.90
2019-06-08T01:21:03.267Z,99.90
2019-06-08T01:23:23.429Z,99.90
2019-06-08T01:25:42.450Z,99.90
2019-06-08T01:28:01.549Z,99.90
2019-06-08T01:30:20.598Z,99.90
2019-06-08T01:32:39.666Z,99.90
2019-06-08T01:34:58.895Z,99.90
2019-06-08T01:37:17.994Z,99.90
2019-06-08T01:39:37.017Z,99.90
2019-06-08T01:41:56.047Z,99.90
2019-06-08T01:44:15.070Z,99.90
2019-06-08T01:46:34.083Z,99.90
2019-06-08T01:48:53.019Z,99.90
2019-06-08T01:51:12.072Z,99.90
2019-06-08T01:53:31.239Z,99.90
2019-06-08T01:55:50.345Z,99.90
2019-06-08T01:58:09.337Z,99.90
2019-06-08T02:00:30.323Z,99.90
2019-06-08T02:02:49.179Z,99.90
2019-06-08T02:05:08.374Z,99.90
2019-06-08T02:07:28.407Z,99.90
2019-06-08T02:09:47.345Z,99.90
2019-06-08T02:12:06.378Z,99.90
2019-06-08T02:14:25.414Z,99.90
2019-06-08T02:16:44.437Z,99.90
2019-06-08T02:19:03.573Z,99.90
2019-06-08T02:21:22.697Z,99.90
2019-06-08T02:23:41.745Z,99.90
2019-06-08T02:26:01.763Z,99.90
2019-06-08T02:28:20.782Z,99.90
2019-06-08T02:30:41.891Z,99.90
2019-06-08T02:33:00.583Z,99.90
2019-06-08T02:35:19.772Z,99.90
2019-06-08T02:37:39.881Z,99.90
2019-06-08T02:40:01.882Z,99.90
2019-06-08T02:42:20.914Z,99.90
2019-06-08T02:44:40.897Z,99.90
2019-06-08T02:46:59.838Z,99.90
2019-06-08T02:49:18.844Z,99.90
2019-06-08T02:51:38.315Z,99.90
2019-06-08T02:53:59.893Z,99.90
2019-06-08T02:56:20.467Z,99.90
2019-06-08T02:58:40.835Z,99.90
2019-06-08T03:01:00.017Z,99.90
2019-06-08T03:03:19.320Z,99.90
2019-06-08T03:05:40.467Z,99.90
2019-06-08T03:08:00.526Z,99.90
2019-06-08T03:10:19.551Z,99.90
2019-06-08T03:12:40.294Z,99.90
2019-06-08T03:15:00.695Z,99.90
2019-06-08T03:17:19.675Z,99.90
2019-06-08T03:19:39.992Z,99.90
2019-06-08T03:21:59.415Z,99.90
2019-06-08T03:24:18.598Z,99.90
2019-06-08T03:26:40.850Z,99.90
2019-06-08T03:28:58.431Z,99.90
2019-06-08T03:31:17.611Z,99.90
2019-06-08T03:33:45.499Z,99.90
2019-06-08T03:35:58.557Z,99.90
2019-06-08T03:38:17.826Z,99.90
2019-06-08T03:40:38.222Z,99.90
2019-06-08T03:42:59.769Z,99.90
2019-06-08T03:45:18.544Z,99.90
2019-06-08T03:47:38.998Z,99.90
2019-06-08T03:49:58.421Z,99.90
2019-06-08T03:52:17.474Z,99.90
2019-06-08T03:54:38.957Z,99.90
2019-06-08T03:56:57.131Z,99.90
2019-06-08T03:59:16.259Z,99.90
2019-06-08T04:01:35.329Z,99.90
2019-06-08T04:03:54.326Z,99.90
2019-06-08T04:06:13.405Z,99.90
2019-06-08T04:08:32.641Z,99.90
2019-06-08T04:10:51.801Z,99.90
2019-06-08T04:13:11.779Z,99.90
2019-06-08T04:15:31.116Z,99.90
2019-06-08T04:17:50.396Z,99.90
2019-06-08T04:20:12.006Z,99.90
2019-06-08T04:22:30.253Z,99.90
2019-06-08T04:24:50.667Z,99.90
2019-06-08T04:27:10.139Z,99.90
2019-06-08T04:29:29.172Z,99.90
2019-06-08T04:31:50.023Z,99.90
2019-06-08T04:34:08.861Z,99.90
2019-06-08T04:36:27.858Z,99.90
2019-06-08T04:38:47.813Z,99.90
2019-06-08T04:41:07.636Z,99.90
2019-06-08T04:43:26.654Z,99.90
2019-06-08T04:45:47.508Z,99.90
2019-06-08T04:48:09.528Z,99.90
2019-06-08T04:50:26.937Z,99.90
2019-06-08T04:52:47.463Z,99.90
2019-06-08T04:55:07.263Z,99.90
2019-06-08T04:57:26.360Z,99.90
2019-06-08T04:59:47.619Z,99.90
2019-06-08T05:02:07.185Z,99.90
2019-06-08T05:04:27.163Z,99.90
2019-06-08T05:06:47.222Z,99.90
2019-06-08T05:09:07.188Z,99.90
2019-06-08T05:11:26.274Z,99.90
2019-06-08T05:13:45.418Z,99.90
2019-06-08T05:16:04.565Z,99.90
2019-06-08T05:18:25.953Z,99.90
2019-06-08T05:20:52.076Z,99.90
2019-06-08T05:23:11.271Z,99.90
2019-06-08T05:25:30.566Z,99.90
2019-06-08T05:27:49.656Z,99.90
2019-06-08T05:30:09.206Z,99.90
2019-06-08T05:32:28.279Z,99.90
2019-06-08T05:34:47.626Z,99.90
2019-06-08T05:37:06.818Z,99.90
2019-06-08T05:39:25.855Z,99.90
2019-06-08T05:41:45.523Z,99.90
2019-06-08T05:44:05.599Z,99.90
2019-06-08T05:46:24.641Z,99.90
2019-06-08T05:48:43.867Z,99.90
2019-06-08T05:51:04.239Z,99.90
2019-06-08T05:53:23.559Z,99.90
2019-06-08T05:55:43.869Z,99.90
2019-06-08T05:58:05.590Z,99.90
2019-06-08T06:00:24.814Z,99.90
2019-06-08T06:02:44.758Z,99.90
2019-06-08T06:05:05.994Z,99.90
2019-06-08T06:07:25.020Z,99.90
2019-06-08T06:09:45.106Z,99.90
2019-06-08T06:12:04.838Z,99.90
2019-06-08T06:14:23.956Z,99.90
2019-06-08T06:16:43.168Z,99.90
2019-06-08T06:19:02.310Z,99.90
2019-06-08T06:21:21.308Z,99.90
2019-06-08T06:23:41.154Z,99.90
2019-06-08T06:26:00.495Z,99.50
2019-06-08T06:28:19.525Z,98.30
2019-06-08T06:30:38.527Z,97.80
2019-06-08T06:32:57.523Z,98.50
2019-06-08T06:35:16.562Z,96.90
2019-06-08T06:37:35.729Z,96.40
2019-06-08T06:39:54.867Z,96.00
2019-06-08T06:42:13.863Z,95.60
2019-06-08T06:44:32.868Z,94.60
2019-06-08T06:46:52.466Z,94.20
2019-06-08T06:49:11.605Z,94.50
2019-06-08T06:51:33.794Z,94.50
2019-06-08T06:53:51.269Z,93.80
2019-06-08T06:56:10.782Z,92.20
2019-06-08T06:58:30.572Z,90.50
2019-06-08T07:00:51.604Z,90.60
2019-06-08T07:03:10.603Z,89.90
2019-06-08T07:05:29.664Z,89.40
2019-06-08T07:07:48.857Z,90.10
2019-06-08T07:10:08.531Z,88.60
2019-06-08T07:12:27.500Z,88.50
2019-06-08T07:14:47.014Z,87.90
2019-06-08T07:17:06.075Z,85.70
2019-06-08T07:19:25.115Z,85.70
2019-06-08T07:21:48.326Z,82.90
2019-06-08T07:24:07.320Z,81.70
2019-06-08T07:26:26.384Z,81.90
2019-06-08T07:28:47.599Z,81.10
2019-06-08T07:31:07.794Z,79.40
2019-06-08T07:33:26.845Z,78.00
2019-06-08T07:35:46.830Z,78.50
2019-06-08T07:38:06.622Z,78.20
2019-06-08T07:40:26.812Z,79.50
2019-06-08T07:42:47.653Z,75.80
2019-06-08T07:45:07.351Z,75.10
2019-06-08T07:47:26.400Z,74.60
2019-06-08T07:49:45.463Z,72.60
2019-06-08T07:52:10.272Z,72.40
2019-06-08T07:54:26.329Z,72.70
2019-06-08T07:56:45.344Z,71.40
2019-06-08T07:59:04.329Z,69.80
2019-06-08T08:01:35.929Z,71.40
2019-06-08T08:03:44.348Z,70.10
2019-06-08T08:06:03.383Z,72.00
2019-06-08T08:08:23.992Z,67.90
2019-06-08T08:10:43.063Z,67.20
2019-06-08T08:13:02.070Z,67.80
2019-06-08T08:15:21.099Z,66.70
2019-06-08T08:17:40.018Z,65.80
2019-06-08T08:20:00.097Z,66.90
2019-06-08T08:22:25.257Z,63.80
2019-06-08T08:24:39.725Z,63.60
2019-06-08T08:27:02.039Z,63.90
2019-06-08T08:29:19.432Z,62.30
2019-06-08T08:31:38.367Z,63.20
2019-06-08T08:34:22.207Z,61.40
2019-06-08T08:36:41.209Z,61.10
2019-06-08T08:39:02.318Z,60.80
2019-06-08T08:41:21.901Z,60.90
2019-06-08T08:43:40.914Z,58.60
2019-06-08T08:46:01.838Z,59.10
2019-06-08T08:48:28.102Z,59.00
2019-06-08T08:50:42.717Z,59.70
2019-06-08T08:53:02.409Z,59.00
2019-06-08T08:55:21.441Z,61.20
2019-06-08T08:57:41.700Z,57.80
2019-06-08T09:00:04.633Z,58.50
2019-06-08T09:02:21.724Z,58.50
2019-06-08T09:04:40.843Z,58.10
2019-06-08T09:07:05.537Z,59.10
2019-06-08T09:09:21.819Z,58.20
2019-06-08T09:11:41.419Z,58.00
2019-06-08T09:14:05.186Z,57.60
2019-06-08T09:16:21.601Z,57.60
2019-06-08T09:18:40.715Z,55.70
2019-06-08T09:21:02.342Z,56.60
2019-06-08T09:23:21.975Z,57.60
2019-06-08T09:25:42.375Z,58.30
2019-06-08T09:28:04.678Z,59.30
2019-06-08T09:30:22.272Z,58.30
2019-06-08T09:32:41.209Z,58.10
2019-06-08T09:35:02.797Z,59.70
2019-06-08T09:37:20.913Z,58.90
2019-06-08T09:39:39.929Z,60.00
2019-06-08T09:42:01.936Z,62.40
2019-06-08T09:44:19.525Z,63.00
2019-06-08T09:46:38.659Z,64.20
2019-06-08T09:48:59.468Z,62.10
2019-06-08T09:51:18.771Z,64.30
2019-06-08T09:53:41.403Z,64.50
2019-06-08T09:56:02.429Z,66.70
2019-06-08T09:58:20.326Z,66.80
2019-06-08T10:00:39.467Z,69.60
2019-06-08T10:03:01.135Z,71.00
2019-06-08T10:05:19.216Z,71.40
2019-06-08T10:07:38.991Z,71.90
2019-06-08T10:10:00.296Z,72.40
2019-06-08T10:12:18.804Z,72.70
2019-06-08T10:14:38.167Z,73.20
2019-06-08T10:17:00.584Z,74.00
2019-06-08T10:19:19.652Z,74.90
2019-06-08T10:21:42.683Z,73.50
2019-06-08T10:24:02.801Z,73.20
2019-06-08T10:26:21.543Z,71.30
2019-06-08T10:28:40.579Z,68.80
2019-06-08T10:31:01.583Z,69.70
2019-06-08T10:33:21.545Z,68.60
2019-06-08T10:35:40.727Z,69.50
2019-06-08T10:38:03.591Z,69.70
2019-06-08T10:40:20.626Z,70.70
2019-06-08T10:42:42.008Z,70.90
2019-06-08T10:45:07.881Z,71.40
2019-06-08T10:47:29.571Z,70.50
2019-06-08T10:49:45.630Z,71.10
2019-06-08T10:52:07.501Z,71.40
2019-06-08T10:54:27.603Z,70.90
2019-06-08T10:56:48.418Z,70.40
2019-06-08T10:59:09.946Z,70.00
2019-06-08T11:01:28.264Z,68.50
2019-06-08T11:03:48.969Z,66.90
2019-06-08T11:06:12.964Z,67.30
2019-06-08T11:08:28.895Z,65.50
2019-06-08T11:10:48.053Z,65.70
2019-06-08T11:13:13.275Z,67.50
2019-06-08T11:15:29.706Z,67.40
2019-06-08T11:17:49.106Z,66.60
2019-06-08T11:20:13.020Z,65.00
2019-06-08T11:22:28.780Z,63.90
2019-06-08T11:24:48.548Z,62.60
2019-06-08T11:27:11.065Z,64.50
2019-06-08T11:29:30.734Z,66.60
2019-06-08T11:31:50.961Z,66.10
2019-06-08T11:34:10.377Z,67.50
2019-06-08T11:36:29.383Z,68.80
2019-06-08T11:38:51.119Z,69.00
2019-06-08T11:41:13.236Z,70.50
2019-06-08T11:43:30.694Z,71.10
2019-06-08T11:45:49.906Z,71.10
2019-06-08T11:48:11.783Z,72.10
2019-06-08T11:50:42.071Z,73.20
2019-06-08T11:53:02.326Z,74.20
2019-06-08T11:55:22.159Z,75.30
2019-06-08T11:57:44.331Z,76.30
2019-06-08T12:00:18.300Z,76.10
2019-06-08T12:02:28.317Z,76.00
2019-06-08T12:04:47.317Z,75.60
2019-06-08T12:07:07.083Z,77.50
2019-06-08T12:09:28.663Z,77.90
2019-06-08T12:11:48.094Z,77.90
2019-06-08T12:14:09.204Z,78.10
2019-06-08T12:16:28.370Z,78.30
2019-06-08T12:18:49.182Z,78.20
2019-06-08T12:21:10.120Z,77.10
2019-06-08T12:23:29.285Z,76.90
2019-06-08T12:25:48.289Z,77.50
2019-06-08T12:28:08.408Z,78.50
2019-06-08T12:30:29.711Z,78.50
2019-06-08T12:32:48.368Z,78.80
2019-06-08T12:35:09.724Z,78.90
2019-06-08T12:37:31.367Z,78.10
2019-06-08T12:39:50.378Z,76.90
2019-06-08T12:42:15.586Z,75.60
2019-06-08T12:44:30.998Z,73.60
2019-06-08T12:46:51.535Z,73.00
2019-06-08T12:49:12.588Z,73.40
2019-06-08T12:51:31.407Z,71.60
2019-06-08T12:53:51.337Z,71.40
2019-06-08T12:56:12.064Z,71.20
2019-06-08T12:58:32.180Z,71.10
2019-06-08T13:00:51.295Z,69.90
2019-06-08T13:03:13.018Z,70.20
2019-06-08T13:05:32.043Z,70.50
2019-06-08T13:07:52.745Z,70.90
2019-06-08T13:10:13.254Z,70.70
2019-06-08T13:12:33.797Z,69.20
2019-06-08T13:14:52.952Z,68.30
2019-06-08T13:17:13.025Z,66.80
2019-06-08T13:19:33.644Z,65.60
2019-06-08T13:21:52.675Z,65.90
2019-06-08T13:24:13.060Z,67.00
2019-06-08T13:26:32.200Z,66.60
2019-06-08T13:28:53.154Z,66.00
2019-06-08T13:31:18.189Z,64.20
2019-06-08T13:33:39.231Z,63.00
2019-06-08T13:35:58.222Z,64.70
2019-06-08T13:38:19.585Z,66.50
2019-06-08T13:40:40.291Z,67.50
2019-06-08T13:42:58.484Z,66.80
2019-06-08T13:45:18.863Z,66.70
2019-06-08T13:47:41.155Z,64.30
2019-06-08T13:49:59.104Z,64.40
2019-06-08T13:52:19.022Z,64.30
2019-06-08T13:54:38.738Z,66.80
2019-06-08T13:56:58.956Z,66.90
2019-06-08T13:59:22.294Z,66.50
2019-06-08T14:01:38.779Z,65.60
2019-06-08T14:03:58.254Z,64.60
2019-06-08T14:06:19.016Z,63.20
2019-06-08T14:08:38.726Z,64.70
2019-06-08T14:11:00.947Z,64.10
2019-06-08T14:13:27.854Z,64.30
2019-06-08T14:15:42.305Z,64.60
2019-06-08T14:18:01.844Z,65.20
2019-06-08T14:20:24.377Z,63.40
2019-06-08T14:22:44.223Z,64.30
2019-06-08T14:25:04.109Z,62.80
2019-06-08T14:27:23.532Z,63.80
2019-06-08T14:29:42.709Z,65.80
2019-06-08T14:32:01.669Z,64.30
2019-06-08T14:34:23.652Z,64.30
2019-06-08T14:36:42.858Z,63.30
2019-06-08T14:39:02.666Z,63.90
2019-06-08T14:41:29.227Z,63.50
2019-06-08T14:43:50.546Z,64.30
2019-06-08T14:46:08.063Z,64.50
2019-06-08T14:48:33.136Z,64.40
2019-06-08T14:50:49.114Z,64.30
2019-06-08T14:53:09.814Z,64.20
2019-06-08T14:55:34.135Z,65.20
2019-06-08T14:57:51.126Z,65.20
2019-06-08T15:00:12.370Z,64.20
2019-06-08T15:02:31.479Z,64.10
2019-06-08T15:04:50.526Z,63.30
2019-06-08T15:07:09.710Z,63.80
2019-06-08T15:09:29.838Z,63.10
2019-06-08T15:11:48.939Z,63.80
2019-06-08T15:14:08.521Z,64.10
2019-06-08T15:16:32.444Z,63.00
2019-06-08T15:18:50.055Z,63.40
2019-06-08T15:21:08.977Z,63.40
2019-06-08T15:23:32.678Z,63.60
2019-06-08T15:25:50.353Z,62.10
2019-06-08T15:28:09.444Z,62.00
2019-06-08T15:30:31.047Z,62.50
2019-06-08T15:32:49.027Z,62.10
2019-06-08T15:35:08.348Z,62.70
2019-06-08T15:37:28.150Z,63.20
2019-06-08T15:39:51.175Z,63.10
2019-06-08T15:42:08.686Z,62.60
2019-06-08T15:44:29.081Z,62.90
2019-06-08T15:46:48.467Z,63.40
2019-06-08T15:49:08.519Z,63.40
2019-06-08T15:51:29.696Z,64.00
2019-06-08T15:53:48.983Z,64.10
2019-06-08T15:56:08.522Z,62.50
2019-06-08T15:58:29.926Z,63.00
2019-06-08T16:00:49.635Z,63.60
2019-06-08T16:03:08.710Z,63.20
2019-06-08T16:05:27.819Z,63.30
2019-06-08T16:07:46.966Z,62.40
2019-06-08T16:10:09.086Z,62.90
2019-06-08T16:12:28.424Z,62.90
2019-06-08T16:14:47.473Z,62.30
2019-06-08T16:17:06.460Z,62.30
2019-06-08T16:19:25.688Z,62.40
2019-06-08T16:21:44.762Z,62.70
2019-06-08T16:24:04.267Z,62.70
2019-06-08T16:26:23.281Z,63.60
2019-06-08T16:28:42.290Z,63.10
2019-06-08T16:31:05.290Z,63.20
2019-06-08T16:33:24.666Z,63.40
2019-06-08T16:35:43.813Z,63.20
2019-06-08T16:38:02.887Z,63.70
2019-06-08T16:40:22.007Z,64.20
2019-06-08T16:42:41.090Z,63.90
2019-06-08T16:45:00.168Z,64.30
2019-06-08T16:47:19.267Z,65.20
2019-06-08T16:49:39.567Z,65.20
2019-06-08T16:51:58.671Z,65.40
2019-06-08T16:54:17.716Z,66.00
2019-06-08T16:56:36.711Z,65.10
2019-06-08T16:58:55.907Z,65.70
2019-06-08T17:01:15.044Z,65.20
2019-06-08T17:03:36.916Z,65.40
2019-06-08T17:05:56.589Z,65.70
2019-06-08T17:08:15.599Z,66.00
2019-06-08T17:10:36.894Z,65.80
2019-06-08T17:12:55.661Z,65.70
2019-06-08T17:15:14.767Z,65.80
2019-06-08T17:17:34.255Z,66.90
2019-06-08T17:19:54.316Z,66.70
2019-06-08T17:22:13.349Z,66.40
2019-06-08T17:24:32.543Z,66.70
2019-06-08T17:26:51.666Z,67.20
2019-06-08T17:29:10.732Z,67.00
2019-06-08T17:31:30.983Z,67.00
2019-06-08T17:33:50.090Z,68.20
2019-06-08T17:36:09.168Z,67.60
2019-06-08T17:38:31.829Z,67.70
2019-06-08T17:40:53.020Z,67.60
2019-06-08T17:43:12.126Z,66.50
2019-06-08T17:45:32.318Z,67.20
2019-06-08T17:47:51.460Z,67.50
2019-06-08T17:50:11.582Z,68.20
2019-06-08T17:52:30.633Z,66.00
2019-06-08T17:54:49.606Z,66.40
2019-06-08T17:57:09.913Z,66.40
2019-06-08T17:59:30.824Z,66.50
2019-06-08T18:01:49.851Z,66.10
2019-06-08T18:04:08.884Z,64.80
2019-06-08T18:06:27.967Z,63.00
2019-06-08T18:08:48.028Z,62.30
2019-06-08T18:11:08.105Z,63.80
2019-06-08T18:13:27.425Z,64.00
2019-06-08T18:15:48.290Z,64.30
2019-06-08T18:18:08.603Z,64.10
2019-06-08T18:20:28.273Z,64.90
2019-06-08T18:22:49.418Z,63.60
2019-06-08T18:25:08.197Z,63.50
2019-06-08T18:27:27.820Z,64.00
2019-06-08T18:29:48.772Z,63.60
2019-06-08T18:32:09.189Z,64.90
2019-06-08T18:34:29.413Z,66.00
2019-06-08T18:36:48.449Z,64.50
2019-06-08T18:39:07.574Z,65.10
2019-06-08T18:41:27.164Z,65.20
2019-06-08T18:43:48.614Z,65.70
2019-06-08T18:46:07.158Z,66.00
2019-06-08T18:48:28.066Z,66.20
2019-06-08T18:50:48.472Z,65.90
2019-06-08T18:53:08.623Z,65.50
2019-06-08T18:55:27.991Z,65.80
2019-06-08T18:57:49.159Z,65.90
2019-06-08T19:00:11.748Z,65.20
2019-06-08T19:02:30.431Z,65.40
2019-06-08T19:04:49.738Z,65.20
2019-06-08T19:07:08.859Z,65.00
2019-06-08T19:09:27.912Z,65.20
2019-06-08T19:11:48.668Z,64.90
2019-06-08T19:14:09.304Z,64.80
2019-06-08T19:16:28.686Z,65.30
2019-06-08T19:18:52.471Z,65.50
2019-06-08T19:21:08.382Z,65.60
2019-06-08T19:23:30.503Z,65.30
2019-06-08T19:25:49.737Z,64.90
2019-06-08T19:28:08.737Z,65.40
2019-06-08T19:30:28.271Z,65.90
2019-06-08T19:32:51.400Z,66.40
2019-06-08T19:35:08.398Z,67.50
2019-06-08T19:37:28.046Z,68.10
2019-06-08T19:39:49.083Z,67.90
2019-06-08T19:42:08.551Z,68.20
2019-06-08T19:44:27.674Z,69.40
2019-06-08T19:46:49.544Z,69.70
2019-06-08T19:49:07.993Z,70.30
2019-06-08T19:51:27.884Z,71.90
2019-06-08T19:53:52.863Z,71.80
2019-06-08T19:56:08.857Z,73.20
2019-06-08T19:58:28.963Z,73.70
2019-06-08T20:00:52.301Z,74.20
2019-06-08T20:03:08.659Z,75.00
2019-06-08T20:05:28.508Z,76.10
2019-06-08T20:07:47.655Z,76.80
2019-06-08T20:10:09.834Z,78.00
2019-06-08T20:12:28.854Z,79.20
2019-06-08T20:14:50.984Z,79.90
2019-06-08T20:17:09.425Z,80.40
2019-06-08T20:19:28.459Z,80.50
2019-06-08T20:21:49.841Z,81.10
2019-06-08T20:24:10.404Z,81.80
2019-06-08T20:26:29.842Z,82.20
2019-06-08T20:28:51.003Z,82.50
2019-06-08T20:31:09.625Z,82.90
2019-06-08T20:33:28.646Z,83.50
2019-06-08T20:35:48.541Z,84.40
2019-06-08T20:38:08.450Z,84.80
2019-06-08T20:40:28.099Z,85.80
2019-06-08T20:42:52.561Z,86.40
2019-06-08T20:45:09.037Z,86.50
2019-06-08T20:47:27.998Z,86.80
2019-06-08T20:49:49.016Z,87.30
2019-06-08T20:52:08.528Z,87.00
2019-06-08T20:54:27.961Z,87.60
2019-06-08T20:56:47.977Z,87.90
2019-06-08T20:59:08.375Z,88.20
2019-06-08T21:01:27.537Z,88.50
2019-06-08T21:03:48.583Z,88.90
2019-06-08T21:06:07.750Z,88.70
2019-06-08T21:08:28.166Z,88.10
2019-06-08T21:10:49.887Z,88.60
2019-06-08T21:13:08.360Z,90.00
2019-06-08T21:15:27.589Z,90.00
2019-06-08T21:17:49.134Z,90.00
2019-06-08T21:20:08.591Z,90.00
2019-06-08T21:22:27.926Z,90.20
2019-06-08T21:24:51.781Z,90.20
2019-06-08T21:27:08.324Z,90.30
2019-06-08T21:29:46.529Z,90.60
2019-06-08T21:31:51.559Z,91.20
2019-06-08T21:34:09.391Z,91.50
2019-06-08T21:36:28.636Z,91.70
2019-06-08T21:38:51.902Z,91.90
2019-06-08T21:41:08.493Z,92.10
2019-06-08T21:43:28.076Z,92.20
2019-06-08T21:45:50.235Z,92.00
2019-06-08T21:48:10.211Z,91.80
2019-06-08T21:50:29.274Z,92.00
2019-06-08T21:52:50.189Z,92.40
2019-06-08T21:55:09.299Z,92.30
2019-06-08T21:57:28.269Z,92.20
2019-06-08T21:59:53.032Z,92.30
2019-06-08T22:02:08.266Z,92.30
2019-06-08T22:04:27.766Z,92.50
2019-06-08T22:06:47.995Z,92.60
2019-06-08T22:09:08.181Z,92.50
2019-06-08T22:11:27.383Z,92.50
2019-06-08T22:13:47.696Z,92.90
2019-06-08T22:16:08.183Z,92.90
2019-06-08T22:18:27.450Z,93.10
2019-06-08T22:20:47.850Z,92.80
2019-06-08T22:23:13.110Z,92.90
2019-06-08T22:25:33.344Z,93.30
2019-06-08T22:27:53.523Z,93.40
2019-06-08T22:30:22.858Z,93.20
2019-06-08T22:32:33.357Z,93.70
2019-06-08T22:34:53.092Z,93.50
2019-06-08T22:37:12.134Z,93.40
2019-06-08T22:39:31.132Z,93.50
2019-06-08T22:41:51.371Z,93.60
2019-06-08T22:44:10.454Z,93.50
2019-06-08T22:46:29.544Z,94.00
2019-06-08T22:48:48.469Z,94.30
2019-06-08T22:51:08.127Z,94.30
2019-06-08T22:53:27.706Z,95.00
2019-06-08T22:55:47.605Z,95.30
2019-06-08T22:58:07.716Z,95.60
2019-06-08T23:00:27.898Z,96.20
2019-06-08T23:02:48.548Z,95.70
2019-06-08T23:05:09.089Z,95.70
2019-06-08T23:07:32.387Z,95.70
2019-06-08T23:09:49.349Z,95.80
2019-06-08T23:12:09.410Z,95.70
2019-06-08T23:14:28.720Z,95.60
2019-06-08T23:16:48.852Z,95.40
2019-06-08T23:19:08.083Z,95.30
2019-06-08T23:21:27.566Z,95.10
2019-06-08T23:23:47.760Z,95.00
2019-06-08T23:26:10.168Z,95.30
2019-06-08T23:28:28.711Z,95.50
2019-06-08T23:30:47.911Z,96.20
2019-06-08T23:33:11.439Z,96.20
2019-06-08T23:35:44.086Z,96.20
2019-06-08T23:37:49.462Z,96.50
2019-06-08T23:40:08.676Z,96.80
2019-06-08T23:42:27.707Z,96.90
2019-06-08T23:44:47.160Z,97.10
2019-06-08T23:47:06.236Z,96.90
2019-06-08T23:49:27.673Z,96.70
2019-06-08T23:51:47.535Z,96.40
2019-06-08T23:54:10.504Z,96.40
2019-06-08T23:56:27.844Z,96.50
2019-06-08T23:58:48.231Z,96.70
